Kinross, Michigan
Current Conditions -  °F | °C
As of 1:15 PM on Friday 24 Oct 2014 (Local Time) from KCIU Reporting Station
Overcast Overcast  
Wind Chill: 52°   Ceiling: 600
Heat Index: 52°   Visibility: 8mi
Dew Point: 50°   Wind: 3mph
Humidity: 94%   Direction: 210°SSW
Pressure: 29.95"   Gusts: NA
Location:  46.27°N, 84.51°W
Report Text: KCIU 241715Z AUTO 21003KT 8SM OVC006 11/10 A2995 RMK AO1
Loading
Personal Weather Stations






























Interactive Weather Map
Tropical Storm Tracking
New forecast layout! Learn more

10-Day Weather Forecast

Advertisements
Track Severe Weather on mobile